Time;durP1;ratioP1;P1;durP2;ratioP2;P2;SDS_P1;SDS_P2;PMS_P1;PMS_P2;Temp;Humidity;BMP_temperature;BMP_pressure;BME280_temperature;BME280_humidity;BME280_pressure;Samples;Min_cycle;Max_cycle;Signal;HPM_P1;HPM_P2
2022/09/17 00:00:42;;;;;;;0.70;0.70;;;15.20;99.90;;;;;;5103214;28;20634;-83
2022/09/17 00:03:10;;;;;;;1.23;0.60;;;15.20;99.90;;;;;;5094846;28;20343;-83
2022/09/17 00:05:37;;;;;;;0.73;0.60;;;15.20;99.90;;;;;;5100509;28;20201;-83
2022/09/17 00:08:06;;;;;;;0.70;0.50;;;15.20;99.90;;;;;;5077826;28;20513;-84
2022/09/17 00:10:36;;;;;;;0.70;0.60;;;15.20;99.90;;;;;;5074273;28;20292;-83
2022/09/17 00:13:06;;;;;;;1.10;0.63;;;15.20;99.90;;;;;;5092445;28;20221;-85
2022/09/17 00:15:33;;;;;;;0.53;0.53;;;15.30;99.90;;;;;;5090294;28;20697;-84
2022/09/17 00:18:00;;;;;;;0.80;0.50;;;15.30;99.90;;;;;;5101100;28;20198;-81
2022/09/17 00:20:27;;;;;;;2.10;0.80;;;15.30;99.90;;;;;;5095520;28;20291;-83
2022/09/17 00:22:55;;;;;;;0.73;0.50;;;15.30;99.90;;;;;;5092479;28;20302;-82
2022/09/17 00:25:21;;;;;;;0.60;0.60;;;15.20;99.90;;;;;;5084895;28;20199;-84
2022/09/17 00:27:48;;;;;;;0.60;0.57;;;15.20;99.90;;;;;;5106265;28;20322;-85
2022/09/17 00:30:17;;;;;;;0.77;0.50;;;15.20;99.90;;;;;;5105042;28;20207;-85
2022/09/17 00:32:44;;;;;;;1.23;0.80;;;15.20;99.90;;;;;;5095847;28;20262;-84
2022/09/17 00:35:11;;;;;;;0.73;0.73;;;15.20;99.90;;;;;;5091364;28;20208;-84
2022/09/17 00:37:38;;;;;;;1.07;0.73;;;15.20;99.90;;;;;;5092355;28;20196;-84
2022/09/17 00:40:06;;;;;;;0.60;0.50;;;15.20;99.90;;;;;;5075766;28;20196;-85
2022/09/17 00:42:33;;;;;;;0.60;0.60;;;15.20;99.90;;;;;;5076318;28;20208;-84
2022/09/17 00:45:00;;;;;;;0.60;0.60;;;15.20;99.90;;;;;;5078567;28;20596;-84
2022/09/17 00:47:33;;;;;;;0.50;0.50;;;15.30;99.90;;;;;;5076263;28;20204;-84
2022/09/17 00:50:04;;;;;;;0.83;0.60;;;15.20;99.90;;;;;;5095380;28;20283;-83
2022/09/17 00:52:36;;;;;;;0.80;0.50;;;15.30;99.90;;;;;;5079291;28;20514;-83
2022/09/17 00:55:10;;;;;;;0.80;0.60;;;15.30;99.90;;;;;;5098396;28;20291;-83
2022/09/17 00:57:37;;;;;;;0.80;0.70;;;15.20;99.90;;;;;;5087658;28;20322;-82
2022/09/17 01:00:06;;;;;;;0.70;0.63;;;15.30;99.90;;;;;;5076788;28;20196;-81
2022/09/17 01:02:36;;;;;;;0.90;0.60;;;15.30;99.90;;;;;;5072398;28;20318;-81
2022/09/17 01:05:03;;;;;;;0.60;0.50;;;15.20;99.90;;;;;;5092890;28;20194;-81
2022/09/17 01:07:51;;;;;;;0.83;0.67;;;15.20;99.90;;;;;;5077277;28;20193;-82
2022/09/17 01:10:34;;;;;;;0.60;0.60;;;15.20;99.90;;;;;;5103205;28;20219;-82
2022/09/17 01:13:09;;;;;;;0.90;0.60;;;15.20;99.90;;;;;;5071216;28;20780;-83
2022/09/17 01:15:43;;;;;;;0.93;0.67;;;15.20;99.90;;;;;;5099872;28;20222;-82
2022/09/17 01:18:30;;;;;;;0.40;0.40;;;15.20;99.90;;;;;;5069894;28;20532;-82
2022/09/17 01:21:32;;;;;;;0.90;0.60;;;15.20;99.90;;;;;;5112167;27;20287;-81
2022/09/17 01:24:39;;;;;;;0.73;0.50;;;15.20;99.90;;;;;;5055275;28;20326;-84
2022/09/17 01:27:47;;;;;;;0.60;0.60;;;15.20;99.90;;;;;;5077383;28;20215;-81
2022/09/17 01:30:25;;;;;;;0.60;0.60;;;15.20;99.90;;;;;;5069520;28;20314;-83
2022/09/17 01:33:01;;;;;;;0.67;0.67;;;15.20;99.90;;;;;;5098407;28;20238;-84
2022/09/17 01:35:37;;;;;;;0.60;0.60;;;15.20;99.90;;;;;;5081452;28;20203;-83
2022/09/17 01:38:11;;;;;;;0.43;0.43;;;15.20;99.90;;;;;;5099994;28;20619;-85
2022/09/17 01:40:45;;;;;;;0.77;0.40;;;15.20;99.90;;;;;;5092169;28;20199;-84
2022/09/17 01:43:21;;;;;;;1.63;0.60;;;15.20;99.90;;;;;;5072465;28;20213;-83
2022/09/17 01:45:51;;;;;;;0.50;0.50;;;15.20;99.90;;;;;;5094359;28;20229;-84
2022/09/17 01:48:20;;;;;;;0.40;0.40;;;15.20;99.90;;;;;;5100867;28;20557;-83
2022/09/17 01:50:51;;;;;;;0.93;0.53;;;15.20;99.90;;;;;;5096518;28;20297;-83
2022/09/17 01:53:22;;;;;;;1.07;0.60;;;15.20;99.90;;;;;;5104468;27;20215;-83
2022/09/17 01:55:51;;;;;;;1.60;0.50;;;15.10;99.90;;;;;;5066295;28;20205;-82
2022/09/17 01:58:25;;;;;;;0.87;0.50;;;15.20;99.90;;;;;;5074202;28;20288;-83
2022/09/17 02:00:59;;;;;;;0.50;0.50;;;15.10;99.90;;;;;;5094976;28;20707;-83
2022/09/17 02:03:30;;;;;;;0.63;0.50;;;15.10;99.90;;;;;;5091513;28;20301;-83
2022/09/17 02:06:02;;;;;;;0.70;0.60;;;15.10;99.90;;;;;;5095058;28;20671;-85
2022/09/17 02:08:36;;;;;;;1.03;0.57;;;15.10;99.90;;;;;;5071612;28;20690;-85
2022/09/17 02:11:08;;;;;;;0.60;0.60;;;15.10;99.90;;;;;;5097025;28;20192;-82
2022/09/17 02:13:40;;;;;;;0.77;0.60;;;15.10;99.90;;;;;;5073264;28;20185;-82
2022/09/17 02:16:13;;;;;;;0.43;0.43;;;15.10;99.90;;;;;;5086849;28;20215;-82
2022/09/17 02:18:46;;;;;;;0.50;0.50;;;15.10;99.90;;;;;;5088701;28;20190;-82
2022/09/17 02:21:21;;;;;;;0.47;0.47;;;15.00;99.90;;;;;;5093517;28;20510;-82
2022/09/17 02:23:58;;;;;;;0.33;0.30;;;15.00;99.90;;;;;;5080605;28;20214;-85
2022/09/17 02:26:27;;;;;;;1.23;0.50;;;15.00;99.90;;;;;;5095021;28;20607;-83
2022/09/17 02:28:59;;;;;;;0.60;0.60;;;15.00;99.90;;;;;;5089520;28;20207;-84
2022/09/17 02:31:27;;;;;;;0.40;0.40;;;15.00;99.90;;;;;;5071850;28;20578;-84
2022/09/17 02:34:02;;;;;;;0.30;0.30;;;15.00;99.90;;;;;;5081118;28;20191;-84
2022/09/17 02:36:31;;;;;;;0.50;0.50;;;15.00;99.90;;;;;;5097727;28;20542;-84
2022/09/17 02:39:01;;;;;;;1.07;0.50;;;15.00;99.90;;;;;;5072526;28;20204;-84
2022/09/17 02:41:37;;;;;;;0.80;0.50;;;14.90;99.90;;;;;;5092033;28;20496;-84
2022/09/17 02:44:14;;;;;;;0.53;0.40;;;14.90;99.90;;;;;;5091379;28;20187;-85
2022/09/17 02:47:15;;;;;;;0.57;0.50;;;14.80;99.90;;;;;;5068291;28;20207;-85
2022/09/17 02:50:02;;;;;;;0.60;0.50;;;14.80;99.90;;;;;;5067689;28;20220;-83
2022/09/17 02:52:43;;;;;;;0.97;0.50;;;14.80;99.90;;;;;;5096156;28;20528;-83
2022/09/17 02:55:16;;;;;;;0.50;0.50;;;14.80;99.90;;;;;;5094219;28;20199;-83
2022/09/17 02:57:50;;;;;;;0.87;0.50;;;14.80;99.90;;;;;;5094834;28;20195;-81
2022/09/17 03:00:19;;;;;;;0.40;0.40;;;14.80;99.90;;;;;;5094121;28;20201;-84
2022/09/17 03:02:58;;;;;;;1.70;0.80;;;14.70;99.90;;;;;;5099836;28;20600;-84
2022/09/17 03:05:27;;;;;;;0.50;0.50;;;14.70;99.90;;;;;;5074160;28;20195;-83
2022/09/17 03:07:55;;;;;;;0.60;0.60;;;14.70;99.90;;;;;;5095250;28;20200;-82
2022/09/17 03:10:22;;;;;;;1.43;0.63;;;14.70;99.90;;;;;;5093993;28;20206;-84
2022/09/17 03:12:51;;;;;;;1.97;0.70;;;14.70;99.90;;;;;;5081244;28;20262;-84
2022/09/17 03:15:18;;;;;;;1.40;0.63;;;14.80;99.90;;;;;;5075329;28;20222;-82
2022/09/17 03:17:45;;;;;;;0.50;0.50;;;14.80;99.90;;;;;;5073946;28;20282;-82
2022/09/17 03:20:14;;;;;;;0.50;0.50;;;14.70;99.90;;;;;;5093996;28;20199;-83
2022/09/17 03:22:42;;;;;;;0.50;0.40;;;14.70;99.90;;;;;;5092004;28;20315;-83
2022/09/17 03:25:10;;;;;;;0.87;0.60;;;14.80;99.90;;;;;;5099659;28;20190;-82
2022/09/17 03:27:37;;;;;;;0.83;0.50;;;14.80;99.90;;;;;;5075499;28;20219;-82
2022/09/17 03:30:05;;;;;;;1.33;0.80;;;14.80;99.90;;;;;;5088039;28;20654;-84
2022/09/17 03:32:32;;;;;;;0.60;0.60;;;14.80;99.90;;;;;;5097620;28;20192;-84
2022/09/17 03:34:59;;;;;;;1.17;0.43;;;14.70;99.90;;;;;;5093027;28;20230;-83
2022/09/17 03:37:28;;;;;;;1.03;0.47;;;14.70;99.90;;;;;;5092714;28;20223;-86
2022/09/17 03:39:55;;;;;;;3.07;0.70;;;14.70;99.90;;;;;;5078757;28;20196;-85
2022/09/17 03:42:22;;;;;;;0.40;0.40;;;14.70;99.90;;;;;;5095356;28;20310;-83
2022/09/17 03:44:49;;;;;;;0.40;0.40;;;14.70;99.90;;;;;;5085947;28;20280;-84
2022/09/17 03:47:16;;;;;;;1.30;0.60;;;14.70;99.90;;;;;;5076191;28;20321;-84
2022/09/17 03:49:43;;;;;;;0.43;0.43;;;14.70;99.90;;;;;;5095698;28;20192;-83
2022/09/17 03:52:10;;;;;;;1.27;0.50;;;14.70;99.90;;;;;;5091770;28;20275;-82
2022/09/17 03:54:39;;;;;;;0.60;0.60;;;14.70;99.90;;;;;;5079404;28;20235;-82
2022/09/17 03:57:06;;;;;;;0.87;0.70;;;14.70;99.90;;;;;;5095504;28;20207;-83
2022/09/17 03:59:33;;;;;;;2.00;0.50;;;14.70;99.90;;;;;;5094749;28;20225;-81
2022/09/17 04:01:59;;;;;;;0.73;0.67;;;14.70;99.90;;;;;;5094547;28;20233;-83
2022/09/17 04:04:27;;;;;;;1.20;0.70;;;14.70;99.90;;;;;;5066804;28;20204;-83
2022/09/17 04:06:54;;;;;;;0.63;0.50;;;14.70;99.90;;;;;;5088573;28;20203;-83
2022/09/17 04:09:21;;;;;;;1.90;0.77;;;14.70;99.90;;;;;;5086896;28;20294;-82
2022/09/17 04:11:49;;;;;;;0.70;0.70;;;14.60;99.90;;;;;;5075902;28;20219;-81
2022/09/17 04:14:19;;;;;;;0.60;0.60;;;14.60;99.90;;;;;;5079764;28;20651;-83
2022/09/17 04:16:46;;;;;;;1.30;0.70;;;14.60;99.90;;;;;;5083284;28;20217;-83
2022/09/17 04:19:13;;;;;;;0.67;0.67;;;14.60;99.90;;;;;;5066916;28;20676;-83
2022/09/17 04:21:40;;;;;;;0.60;0.50;;;14.60;99.90;;;;;;5089660;28;20640;-81
2022/09/17 04:24:08;;;;;;;1.90;0.60;;;14.60;99.90;;;;;;5088346;28;20713;-81
2022/09/17 04:26:35;;;;;;;0.50;0.50;;;14.60;99.90;;;;;;5090426;28;20302;-81
2022/09/17 04:29:03;;;;;;;0.50;0.50;;;14.60;99.90;;;;;;5097640;28;20226;-81
2022/09/17 04:31:30;;;;;;;0.50;0.50;;;14.50;99.90;;;;;;5091768;28;20286;-80
2022/09/17 04:33:57;;;;;;;0.40;0.40;;;14.50;99.90;;;;;;5083203;28;20192;-81
2022/09/17 04:36:24;;;;;;;0.97;0.77;;;14.50;99.90;;;;;;5074400;28;20196;-80
2022/09/17 04:38:52;;;;;;;0.70;0.70;;;14.50;99.90;;;;;;5077751;28;20635;-80
2022/09/17 04:41:19;;;;;;;0.53;0.53;;;14.50;99.90;;;;;;5068320;28;20258;-83
2022/09/17 04:43:46;;;;;;;0.87;0.60;;;14.40;99.90;;;;;;5078926;28;20203;-83
2022/09/17 04:46:15;;;;;;;0.60;0.60;;;14.40;99.90;;;;;;5090878;28;20230;-81
2022/09/17 04:48:42;;;;;;;0.50;0.50;;;14.40;99.90;;;;;;5091718;28;20528;-82
2022/09/17 04:51:09;;;;;;;0.50;0.50;;;14.40;99.90;;;;;;5092139;28;20200;-82
2022/09/17 04:53:37;;;;;;;0.50;0.50;;;14.40;99.90;;;;;;5098351;28;20311;-85
2022/09/17 04:56:04;;;;;;;0.47;0.40;;;14.40;99.90;;;;;;5099854;28;20223;-82
2022/09/17 04:58:31;;;;;;;3.20;0.43;;;14.40;99.90;;;;;;5079599;28;20192;-85
2022/09/17 05:00:58;;;;;;;0.63;0.63;;;14.40;99.90;;;;;;5095989;28;20215;-83
2022/09/17 05:03:27;;;;;;;1.17;0.80;;;14.40;99.90;;;;;;5099084;28;20227;-85
2022/09/17 05:05:54;;;;;;;1.17;0.70;;;14.40;99.90;;;;;;5098731;28;20189;-82
2022/09/17 05:08:22;;;;;;;0.70;0.70;;;14.40;99.90;;;;;;5077600;28;20523;-82
2022/09/17 05:10:50;;;;;;;1.03;0.80;;;14.40;99.90;;;;;;5094672;28;20303;-82
2022/09/17 05:13:18;;;;;;;0.60;0.60;;;14.40;99.90;;;;;;5100333;28;20209;-82
2022/09/17 05:15:45;;;;;;;1.23;0.80;;;14.40;99.90;;;;;;5092273;28;20199;-82
2022/09/17 05:18:12;;;;;;;0.67;0.67;;;14.40;99.90;;;;;;5101088;28;20190;-82
2022/09/17 05:20:40;;;;;;;1.90;0.80;;;14.40;99.90;;;;;;5074374;28;20203;-83
2022/09/17 05:23:07;;;;;;;0.90;0.70;;;14.40;99.90;;;;;;5078225;28;20211;-84
2022/09/17 05:25:34;;;;;;;0.97;0.73;;;14.50;99.90;;;;;;5071904;28;20248;-83
2022/09/17 05:28:02;;;;;;;0.70;0.70;;;14.50;99.90;;;;;;5076952;28;20598;-86
2022/09/17 05:30:30;;;;;;;0.67;0.67;;;14.50;99.90;;;;;;5100448;28;20265;-82
2022/09/17 05:33:01;;;;;;;0.67;0.60;;;14.50;99.90;;;;;;5082715;28;20192;-85
2022/09/17 05:35:29;;;;;;;0.80;0.63;;;14.50;99.90;;;;;;5089960;28;20196;-80
2022/09/17 05:38:02;;;;;;;1.70;0.60;;;14.50;99.90;;;;;;5099256;28;20202;-82
2022/09/17 05:40:30;;;;;;;0.83;0.83;;;14.60;99.90;;;;;;5089674;28;20184;-82
2022/09/17 05:43:01;;;;;;;0.60;0.60;;;14.60;99.90;;;;;;5079886;28;20654;-82
2022/09/17 05:45:28;;;;;;;1.10;0.77;;;14.60;99.90;;;;;;5079044;28;20229;-84
2022/09/17 05:47:56;;;;;;;1.73;0.80;;;14.70;99.90;;;;;;5071766;28;20611;-82
2022/09/17 05:50:23;;;;;;;0.80;0.80;;;14.70;99.90;;;;;;5095362;28;20658;-82
2022/09/17 05:52:51;;;;;;;1.10;0.80;;;14.70;99.90;;;;;;5094229;28;20203;-83
2022/09/17 05:55:21;;;;;;;1.13;0.80;;;14.70;99.90;;;;;;5070360;28;20278;-83
2022/09/17 05:57:51;;;;;;;2.40;0.83;;;14.80;99.90;;;;;;5095736;28;20200;-83
2022/09/17 06:00:18;;;;;;;0.93;0.70;;;14.80;99.90;;;;;;5088950;28;20523;-81
2022/09/17 06:02:45;;;;;;;0.90;0.90;;;14.80;99.90;;;;;;5078354;28;20777;-82
2022/09/17 06:05:12;;;;;;;1.37;1.20;;;14.80;99.90;;;;;;5095531;28;20276;-82
2022/09/17 06:07:40;;;;;;;1.37;0.83;;;14.80;99.90;;;;;;5103906;28;20184;-83
2022/09/17 06:10:10;;;;;;;1.53;0.97;;;14.90;99.90;;;;;;5092931;28;20193;-84
2022/09/17 06:12:38;;;;;;;0.90;0.90;;;14.90;99.90;;;;;;5092224;28;20649;-83
2022/09/17 06:15:06;;;;;;;0.80;0.80;;;14.90;99.90;;;;;;5095403;28;20234;-86
2022/09/17 06:17:37;;;;;;;0.93;0.70;;;14.90;99.90;;;;;;5103643;28;20196;-87
2022/09/17 06:20:05;;;;;;;1.93;1.10;;;14.90;99.90;;;;;;5069002;28;20548;-85
2022/09/17 06:22:32;;;;;;;0.77;0.70;;;14.90;99.90;;;;;;5102185;28;20195;-83
2022/09/17 06:25:01;;;;;;;1.23;1.10;;;14.90;99.90;;;;;;5091395;28;20657;-81
2022/09/17 06:27:32;;;;;;;1.13;0.80;;;15.00;99.90;;;;;;5094280;28;20195;-84
2022/09/17 06:30:01;;;;;;;0.90;0.90;;;14.90;99.90;;;;;;5096509;28;20981;-82
2022/09/17 06:32:28;;;;;;;0.80;0.80;;;14.90;99.90;;;;;;5074405;28;20295;-83
2022/09/17 06:34:56;;;;;;;0.80;0.80;;;14.90;99.90;;;;;;5076263;28;20203;-83
2022/09/17 06:37:28;;;;;;;1.47;1.03;;;14.90;99.90;;;;;;5077391;28;20722;-84
2022/09/17 06:39:55;;;;;;;1.80;0.90;;;14.90;99.90;;;;;;5093014;28;20192;-84
2022/09/17 06:42:22;;;;;;;2.10;0.70;;;14.90;99.90;;;;;;5077978;28;20236;-83
2022/09/17 06:44:49;;;;;;;0.80;0.80;;;14.90;99.90;;;;;;5112244;27;20570;-84
2022/09/17 06:47:18;;;;;;;1.17;0.73;;;14.90;99.90;;;;;;5076838;28;20624;-81
2022/09/17 06:49:45;;;;;;;1.07;0.90;;;14.20;99.90;;;;;;5090232;28;20255;-83
2022/09/17 06:52:14;;;;;;;1.57;0.90;;;14.90;99.90;;;;;;5072322;28;20257;-82
2022/09/17 06:54:41;;;;;;;0.70;0.70;;;15.00;99.90;;;;;;5075728;28;20197;-82
2022/09/17 06:57:12;;;;;;;0.93;0.70;;;15.00;99.90;;;;;;5094593;28;20200;-83
2022/09/17 06:59:39;;;;;;;1.20;0.80;;;15.10;99.90;;;;;;5075266;28;20652;-82
2022/09/17 07:02:06;;;;;;;1.00;0.70;;;15.10;99.90;;;;;;5096417;28;20228;-82
2022/09/17 07:04:34;;;;;;;0.83;0.63;;;15.10;99.90;;;;;;5092670;28;20295;-83
2022/09/17 07:07:01;;;;;;;1.00;1.00;;;15.10;99.90;;;;;;5073088;28;20195;-82
2022/09/17 07:09:28;;;;;;;0.90;0.90;;;15.10;99.90;;;;;;5097068;28;20713;-81
2022/09/17 07:11:56;;;;;;;0.93;0.90;;;15.10;99.90;;;;;;5071074;28;20234;-84
2022/09/17 07:14:24;;;;;;;0.80;0.77;;;15.20;99.90;;;;;;5094214;28;20764;-84
2022/09/17 07:16:52;;;;;;;0.73;0.70;;;15.20;99.90;;;;;;5072353;28;20226;-83
2022/09/17 07:19:19;;;;;;;1.23;0.97;;;15.20;99.90;;;;;;5096979;28;20188;-84
2022/09/17 07:21:49;;;;;;;0.90;0.90;;;15.20;99.90;;;;;;5079218;28;20197;-84
2022/09/17 07:24:16;;;;;;;0.80;0.80;;;15.20;99.90;;;;;;5074018;28;20696;-83
2022/09/17 07:26:43;;;;;;;0.50;0.50;;;15.30;99.90;;;;;;5096302;28;20207;-83
2022/09/17 07:29:11;;;;;;;0.80;0.80;;;15.30;99.90;;;;;;5094952;28;20196;-84
2022/09/17 07:31:38;;;;;;;0.87;0.80;;;15.40;99.90;;;;;;5110438;28;20201;-85
2022/09/17 07:34:05;;;;;;;0.80;0.80;;;15.40;99.90;;;;;;5110216;28;20185;-85
2022/09/17 07:36:32;;;;;;;0.73;0.63;;;15.40;99.90;;;;;;5094651;28;20207;-85
2022/09/17 07:39:03;;;;;;;0.90;0.90;;;15.50;99.90;;;;;;5082852;28;20220;-81
2022/09/17 07:41:30;;;;;;;0.97;0.97;;;15.50;99.90;;;;;;5091472;28;20195;-82
2022/09/17 07:43:58;;;;;;;1.40;0.80;;;15.50;99.90;;;;;;5098480;28;20223;-83
2022/09/17 07:46:25;;;;;;;0.70;0.70;;;15.50;99.90;;;;;;5072130;28;20208;-85
2022/09/17 07:48:52;;;;;;;0.90;0.90;;;15.50;99.90;;;;;;5095331;28;20253;-85
2022/09/17 07:51:21;;;;;;;3.03;0.90;;;15.50;99.90;;;;;;5074260;28;20284;-83
2022/09/17 07:53:51;;;;;;;0.90;0.67;;;15.50;99.90;;;;;;5067674;28;20305;-84
2022/09/17 07:56:20;;;;;;;0.97;0.70;;;15.50;99.90;;;;;;5088070;28;20219;-84
2022/09/17 07:58:47;;;;;;;0.60;0.60;;;15.50;99.90;;;;;;5096868;28;20216;-82
2022/09/17 08:01:15;;;;;;;0.80;0.80;;;15.60;99.90;;;;;;5091636;28;20735;-83
2022/09/17 08:03:43;;;;;;;0.80;0.80;;;15.80;99.90;;;;;;5101786;28;20300;-82
2022/09/17 08:06:12;;;;;;;1.67;0.83;;;15.80;99.90;;;;;;5095230;28;20212;-84
2022/09/17 08:08:41;;;;;;;1.13;0.83;;;16.00;99.90;;;;;;5095779;28;20240;-84
2022/09/17 08:11:09;;;;;;;1.70;1.00;;;16.10;99.90;;;;;;5096480;28;20279;-83
2022/09/17 08:13:38;;;;;;;0.70;0.70;;;16.30;99.90;;;;;;5093992;28;20339;-82
2022/09/17 08:16:07;;;;;;;2.10;0.80;;;16.70;99.90;;;;;;5070441;28;20295;-83
2022/09/17 08:18:35;;;;;;;1.67;1.00;;;16.90;99.90;;;;;;5094855;28;20648;-84
2022/09/17 08:21:03;;;;;;;1.37;0.70;;;17.00;99.90;;;;;;5071653;28;20197;-82
2022/09/17 08:23:31;;;;;;;0.63;0.60;;;16.90;99.90;;;;;;5097019;28;20197;-85
2022/09/17 08:26:00;;;;;;;0.60;0.60;;;16.80;99.90;;;;;;5094629;28;20232;-84
2022/09/17 08:28:31;;;;;;;0.67;0.67;;;16.80;99.90;;;;;;5080839;28;20672;-84
2022/09/17 08:31:02;;;;;;;0.97;0.70;;;16.70;99.90;;;;;;5092086;28;20188;-82
2022/09/17 08:33:31;;;;;;;0.70;0.70;;;16.70;99.90;;;;;;5097320;28;20200;-84
2022/09/17 08:35:59;;;;;;;0.80;0.80;;;16.60;99.90;;;;;;5078204;28;20270;-82
2022/09/17 08:38:26;;;;;;;0.93;0.83;;;16.30;99.90;;;;;;5097095;28;20199;-82
2022/09/17 08:41:08;;;;;;;0.80;0.80;;;16.50;99.90;;;;;;5092322;28;20201;-82
2022/09/17 08:43:42;;;;;;;0.80;0.80;;;16.50;99.90;;;;;;5092434;28;20185;-83
2022/09/17 08:46:11;;;;;;;1.50;0.63;;;16.50;99.90;;;;;;5097885;28;20227;-84
2022/09/17 08:48:43;;;;;;;0.80;0.80;;;16.50;99.90;;;;;;5071540;28;20690;-82
2022/09/17 08:51:23;;;;;;;1.00;0.90;;;16.50;99.90;;;;;;5090873;28;20289;-83
2022/09/17 08:54:01;;;;;;;0.73;0.73;;;16.50;99.90;;;;;;5077684;28;20210;-81
2022/09/17 08:56:33;;;;;;;1.07;0.90;;;16.50;99.90;;;;;;5093292;28;20881;-83
2022/09/17 08:59:10;;;;;;;1.10;1.00;;;16.60;99.90;;;;;;5089232;28;20217;-80
2022/09/17 09:01:45;;;;;;;2.10;0.90;;;16.60;99.90;;;;;;5089540;28;20187;-82
2022/09/17 09:04:48;;;;;;;0.80;0.80;;;16.60;99.90;;;;;;5102957;28;20213;-82
2022/09/17 09:07:18;;;;;;;0.57;0.57;;;16.70;99.90;;;;;;5070662;28;20266;-82
2022/09/17 09:09:50;;;;;;;0.60;0.60;;;16.90;99.90;;;;;;5071806;28;20282;-80
2022/09/17 09:12:24;;;;;;;0.87;0.70;;;17.00;99.90;;;;;;5072618;28;20206;-82
2022/09/17 09:14:58;;;;;;;0.67;0.67;;;17.10;99.90;;;;;;5096859;28;20289;-80
2022/09/17 09:17:31;;;;;;;0.87;0.87;;;17.10;99.90;;;;;;5088121;28;20202;-82
2022/09/17 09:19:58;;;;;;;0.93;0.80;;;17.30;99.90;;;;;;5073614;28;20522;-82
2022/09/17 09:22:38;;;;;;;1.23;0.80;;;17.80;99.90;;;;;;5092749;28;20242;-82
2022/09/17 09:25:16;;;;;;;1.00;0.90;;;18.50;99.90;;;;;;5097469;28;20227;-83
2022/09/17 09:27:51;;;;;;;1.00;0.90;;;19.40;99.90;;;;;;5090290;28;20631;-80
2022/09/17 09:30:22;;;;;;;0.90;0.90;;;20.20;99.30;;;;;;5089439;28;20245;-81
2022/09/17 09:32:57;;;;;;;1.13;0.70;;;20.40;98.20;;;;;;5086316;28;20193;-82
2022/09/17 09:35:30;;;;;;;0.70;0.70;;;20.00;97.90;;;;;;5093345;28;20649;-82
2022/09/17 09:38:04;;;;;;;0.60;0.60;;;19.50;98.10;;;;;;5088493;28;20549;-82
2022/09/17 09:40:40;;;;;;;0.80;0.80;;;19.20;98.50;;;;;;5099649;28;20210;-82
2022/09/17 09:43:17;;;;;;;1.15;0.73;;;19.10;98.50;;;;;;5089455;28;20189;-80
2022/09/17 09:46:07;;;;;;;0.75;0.75;;;19.10;98.20;;;;;;5088854;28;20286;-79
2022/09/17 09:48:44;;;;;;;0.95;0.90;;;19.00;98.20;;;;;;5095218;28;20193;-83
2022/09/17 09:51:21;;;;;;;0.88;0.88;;;18.90;98.30;;;;;;5092514;28;20275;-80
2022/09/17 09:54:04;;;;;;;0.70;0.70;;;19.60;98.20;;;;;;5073355;28;20368;-81
2022/09/17 09:56:45;;;;;;;0.57;0.57;;;21.00;97.10;;;;;;5099553;28;20184;-83
2022/09/17 09:59:13;;;;;;;0.98;0.98;;;22.40;95.10;;;;;;5093441;28;20497;-80
2022/09/17 10:01:43;;;;;;;1.02;0.85;;;23.70;92.80;;;;;;5089969;28;20203;-79
2022/09/17 10:04:24;;;;;;;0.65;0.65;;;24.50;90.80;;;;;;5088690;28;20547;-79
2022/09/17 10:06:53;;;;;;;0.73;0.50;;;25.20;89.90;;;;;;5100091;28;20203;-78
2022/09/17 10:09:21;;;;;;;0.68;0.68;;;26.00;86.80;;;;;;5099817;28;20675;-80
2022/09/17 10:12:16;;;;;;;1.17;0.85;;;26.20;85.00;;;;;;5096899;28;20272;-80
2022/09/17 10:14:44;;;;;;;0.70;0.70;;;26.10;84.60;;;;;;5093805;28;20247;-79
2022/09/17 10:17:16;;;;;;;0.70;0.70;;;25.80;83.80;;;;;;5090492;28;20186;-79
2022/09/17 10:19:45;;;;;;;0.82;0.82;;;25.40;83.60;;;;;;5079766;28;20219;-81
2022/09/17 10:22:37;;;;;;;0.70;0.70;;;25.00;83.90;;;;;;5092432;28;20275;-81
2022/09/17 10:25:07;;;;;;;3.53;1.20;;;24.30;84.60;;;;;;5096740;28;20220;-79
2022/09/17 10:27:35;;;;;;;1.27;0.77;;;24.30;84.20;;;;;;5100882;28;20220;-78
2022/09/17 10:30:14;;;;;;;1.23;1.13;;;24.60;83.00;;;;;;5095299;28;20667;-79
2022/09/17 10:32:41;;;;;;;1.00;0.90;;;24.90;81.60;;;;;;5102964;28;20222;-78
2022/09/17 10:35:27;;;;;;;0.70;0.70;;;25.30;81.50;;;;;;5092608;28;20548;-79
2022/09/17 10:37:54;;;;;;;1.23;1.13;;;25.10;80.90;;;;;;5068658;28;20299;-78
2022/09/17 10:40:28;;;;;;;1.00;1.00;;;25.00;81.20;;;;;;5098119;28;20199;-80
2022/09/17 10:43:25;;;;;;;0.93;0.93;;;24.90;81.60;;;;;;5089890;28;20271;-80
2022/09/17 10:45:59;;;;;;;0.60;0.60;;;24.50;81.50;;;;;;5005823;28;20715;-80
2022/09/17 10:48:28;;;;;;;0.70;0.70;;;24.50;82.20;;;;;;5079414;28;20200;-80
2022/09/17 10:50:58;;;;;;;0.70;0.70;;;25.00;81.50;;;;;;5072359;28;20574;-80
2022/09/17 10:53:26;;;;;;;1.02;0.80;;;25.50;80.00;;;;;;5081927;28;20227;-79
2022/09/17 10:56:01;;;;;;;0.65;0.65;;;25.20;79.50;;;;;;5091482;28;20223;-79
2022/09/17 10:58:50;;;;;;;0.80;0.80;;;24.50;80.00;;;;;;5076067;28;20187;-80
2022/09/17 11:01:33;;;;;;;1.15;1.02;;;24.20;81.10;;;;;;5088355;28;20191;-81
2022/09/17 11:04:21;;;;;;;0.70;0.70;;;23.30;81.20;;;;;;5072644;28;20258;-80
2022/09/17 11:07:25;;;;;;;0.70;0.70;;;22.60;81.80;;;;;;5046350;28;20301;-78
2022/09/17 11:10:01;;;;;;;1.30;1.20;;;22.10;83.00;;;;;;5054740;28;20386;-79
2022/09/17 11:12:48;;;;;;;1.85;0.80;;;21.70;84.90;;;;;;5061626;28;20189;-80
2022/09/17 11:15:35;;;;;;;0.90;0.90;;;21.20;86.70;;;;;;5082475;28;20184;-79
2022/09/17 11:18:25;;;;;;;0.60;0.60;;;20.80;88.50;;;;;;5060942;28;20611;-78
2022/09/17 11:21:29;;;;;;;0.57;0.57;;;20.40;89.30;;;;;;5075170;28;20200;-80
2022/09/17 11:24:30;;;;;;;0.50;0.50;;;20.00;89.20;;;;;;5046808;28;20202;-79
2022/09/17 11:27:08;;;;;;;0.70;0.70;;;19.30;89.10;;;;;;5073484;28;20185;-78
2022/09/17 11:29:50;;;;;;;0.93;0.80;;;19.40;90.10;;;;;;5053109;28;20363;-78
2022/09/17 11:32:36;;;;;;;0.60;0.60;;;19.30;90.50;;;;;;5047138;28;20259;-78
2022/09/17 11:35:09;;;;;;;0.70;0.70;;;19.10;90.80;;;;;;5068816;28;20197;-81
2022/09/17 11:37:40;;;;;;;0.70;0.70;;;18.90;91.30;;;;;;5057028;28;20201;-79
2022/09/17 11:40:15;;;;;;;0.80;0.80;;;18.80;91.70;;;;;;5056124;28;20197;-79
2022/09/17 11:42:46;;;;;;;0.65;0.55;;;18.70;92.00;;;;;;5068567;28;20199;-79
2022/09/17 11:45:18;;;;;;;0.90;0.90;;;18.70;92.50;;;;;;5050707;28;20229;-80
2022/09/17 11:47:50;;;;;;;1.00;0.90;;;18.60;93.00;;;;;;5073569;28;20199;-79
2022/09/17 11:50:21;;;;;;;2.75;1.00;;;18.80;93.60;;;;;;5075123;28;20554;-80
2022/09/17 11:53:04;;;;;;;3.75;1.20;;;19.10;93.70;;;;;;5070427;28;20638;-79
2022/09/17 11:55:39;;;;;;;1.42;1.17;;;19.60;94.00;;;;;;5059879;28;20201;-78
2022/09/17 11:58:14;;;;;;;1.10;1.10;;;20.30;94.00;;;;;;5037064;28;20198;-80
2022/09/17 12:00:48;;;;;;;1.88;1.00;;;21.00;93.80;;;;;;5046993;28;20197;-79
2022/09/17 12:03:24;;;;;;;1.00;0.98;;;21.90;93.50;;;;;;5092197;28;20223;-79
2022/09/17 12:05:54;;;;;;;1.15;0.95;;;22.60;92.80;;;;;;5091865;28;20685;-79
2022/09/17 12:08:25;;;;;;;0.90;0.90;;;23.30;92.20;;;;;;5091692;28;20192;-80
2022/09/17 12:11:01;;;;;;;1.13;0.98;;;23.70;91.60;;;;;;5098846;28;20192;-79
2022/09/17 12:13:35;;;;;;;0.95;0.90;;;24.00;91.00;;;;;;5086307;28;20624;-79
2022/09/17 12:16:12;;;;;;;1.10;1.10;;;24.20;90.70;;;;;;5092365;28;20183;-80
2022/09/17 12:18:49;;;;;;;0.80;0.80;;;24.40;90.30;;;;;;5088727;28;20284;-81
2022/09/17 12:21:21;;;;;;;1.25;1.20;;;24.40;89.50;;;;;;5088995;28;20207;-81
2022/09/17 12:23:52;;;;;;;2.47;1.00;;;24.10;87.60;;;;;;5091828;28;20613;-79
2022/09/17 12:26:45;;;;;;;1.33;1.00;;;23.90;88.30;;;;;;5076492;28;20215;-80
2022/09/17 12:29:27;;;;;;;1.40;0.85;;;23.80;87.20;;;;;;5088570;28;20189;-81
2022/09/17 12:32:01;;;;;;;0.70;0.70;;;23.60;86.30;;;;;;5071455;28;20648;-81
2022/09/17 12:34:41;;;;;;;0.50;0.50;;;23.50;85.70;;;;;;5090871;28;20262;-81
2022/09/17 12:37:15;;;;;;;0.65;0.65;;;23.50;85.50;;;;;;5089060;28;20184;-78
2022/09/17 12:40:11;;;;;;;0.60;0.60;;;23.40;82.40;;;;;;5092619;28;20217;-79
2022/09/17 12:42:57;;;;;;;0.60;0.60;;;23.40;83.30;;;;;;5095198;28;20196;-79
2022/09/17 12:45:36;;;;;;;0.80;0.60;;;23.80;82.80;;;;;;5096600;28;20240;-80
2022/09/17 12:48:45;;;;;;;0.60;0.60;;;24.50;80.70;;;;;;5073693;28;20188;-82
2022/09/17 12:51:25;;;;;;;0.80;0.70;;;25.30;77.80;;;;;;5082005;28;20295;-78
2022/09/17 12:54:03;;;;;;;0.80;0.80;;;26.20;76.40;;;;;;5088909;28;20359;-81
2022/09/17 12:56:51;;;;;;;0.75;0.73;;;27.00;75.50;;;;;;5071460;28;20232;-80
2022/09/17 12:59:25;;;;;;;1.20;1.10;;;27.90;72.30;;;;;;5091618;28;20204;-79
2022/09/17 13:01:58;;;;;;;1.10;1.10;;;28.10;68.80;;;;;;5098071;28;20266;-80
2022/09/17 13:04:54;;;;;;;0.60;0.60;;;27.70;68.10;;;;;;5078339;28;20287;-79
2022/09/17 13:07:51;;;;;;;0.90;0.90;;;27.00;68.40;;;;;;5098842;28;20370;-78
2022/09/17 13:10:40;;;;;;;1.40;1.00;;;26.10;69.90;;;;;;5074200;28;20199;-79
2022/09/17 13:13:20;;;;;;;0.70;0.70;;;25.20;71.30;;;;;;5096287;28;20215;-78
2022/09/17 13:15:55;;;;;;;3.63;0.80;;;24.60;72.30;;;;;;5076082;28;20690;-80